Time;durP1;ratioP1;P1;durP2;ratioP2;P2;SDS_P1;SDS_P2;PMS_P1;PMS_P2;Temp;Humidity;BMP_temperature;BMP_pressure;BME280_temperature;BME280_humidity;BME280_pressure;Samples;Min_cycle;Max_cycle;Signal;HPM_P1;HPM_P2
2022/05/30 00:00:39;;;;;;;8.70;1.98;;;8.60;92.20;;;;;;5111802;27;20103;-75
2022/05/30 00:03:05;;;;;;;6.43;2.28;;;8.60;92.30;;;;;;5107650;28;20031;-75
2022/05/30 00:05:30;;;;;;;6.93;1.90;;;8.50;92.40;;;;;;5112630;28;20146;-75
2022/05/30 00:07:57;;;;;;;9.20;2.03;;;8.50;92.60;;;;;;5109128;28;20122;-75
2022/05/30 00:10:22;;;;;;;9.57;2.60;;;8.60;92.70;;;;;;5113590;28;20390;-75
2022/05/30 00:12:48;;;;;;;8.35;2.13;;;8.60;92.80;;;;;;5107783;28;20028;-75
2022/05/30 00:15:16;;;;;;;10.80;2.17;;;8.50;92.60;;;;;;5107895;27;20030;-75
2022/05/30 00:17:42;;;;;;;6.13;1.98;;;8.60;92.80;;;;;;5110838;28;20028;-74
2022/05/30 00:20:08;;;;;;;6.55;2.40;;;8.60;92.60;;;;;;5105405;28;20024;-75
2022/05/30 00:22:33;;;;;;;10.23;2.50;;;8.60;92.40;;;;;;5099039;27;20076;-75
2022/05/30 00:24:59;;;;;;;6.80;2.00;;;8.60;92.20;;;;;;5110764;28;20032;-75
2022/05/30 00:27:24;;;;;;;7.85;2.10;;;8.60;92.00;;;;;;5109209;28;20039;-75
2022/05/30 00:29:50;;;;;;;7.38;2.33;;;8.60;91.90;;;;;;5105904;28;20466;-75
2022/05/30 00:32:16;;;;;;;8.60;2.53;;;8.60;92.10;;;;;;5112890;28;20043;-75
2022/05/30 00:34:41;;;;;;;14.10;2.35;;;8.60;92.20;;;;;;5113562;27;20035;-75
2022/05/30 00:37:07;;;;;;;11.98;1.85;;;8.60;92.20;;;;;;5107507;28;20292;-75
2022/05/30 00:39:33;;;;;;;10.55;2.30;;;8.60;92.50;;;;;;5112441;28;20046;-74
2022/05/30 00:42:16;;;;;;;8.25;2.45;;;8.60;92.80;;;;;;5109568;28;20047;-75
2022/05/30 00:44:44;;;;;;;7.80;2.10;;;8.50;92.70;;;;;;5108919;27;20035;-75
2022/05/30 00:47:10;;;;;;;9.23;2.10;;;8.60;92.80;;;;;;5100397;28;20071;-75
2022/05/30 00:49:38;;;;;;;9.48;2.08;;;8.50;92.90;;;;;;5110526;28;20026;-75
2022/05/30 00:52:07;;;;;;;8.52;2.58;;;8.50;93.00;;;;;;5105384;28;20539;-74
2022/05/30 00:54:52;;;;;;;9.00;2.40;;;8.50;93.20;;;;;;5105104;28;20080;-75
2022/05/30 00:57:22;;;;;;;8.07;2.70;;;8.50;93.50;;;;;;5107887;28;20040;-75
2022/05/30 00:59:57;;;;;;;14.38;2.50;;;8.40;93.50;;;;;;5104306;28;20084;-75
2022/05/30 01:02:26;;;;;;;11.35;1.90;;;8.40;93.80;;;;;;5110984;28;20531;-75
2022/05/30 01:07:38;;;;;;;9.55;2.60;;;8.30;94.10;;;;;;5109421;28;20051;-75
2022/05/30 01:10:06;;;;;;;13.15;2.58;;;8.40;94.30;;;;;;5102117;27;20031;-75
2022/05/30 01:12:37;;;;;;;5.70;2.20;;;8.40;94.50;;;;;;5110961;28;20040;-75
2022/05/30 01:15:04;;;;;;;5.95;2.20;;;8.30;94.60;;;;;;5112583;28;20027;-75
2022/05/30 01:17:30;;;;;;;6.88;2.33;;;8.30;94.60;;;;;;5107070;28;20047;-75
2022/05/30 01:20:05;;;;;;;5.60;1.98;;;8.30;94.70;;;;;;5103259;28;20019;-75
2022/05/30 01:23:09;;;;;;;14.55;2.70;;;8.20;94.70;;;;;;5109849;28;20036;-75
2022/05/30 01:26:09;;;;;;;12.82;2.65;;;8.30;94.90;;;;;;5112258;28;20077;-75
2022/05/30 01:28:47;;;;;;;14.07;2.50;;;8.30;95.00;;;;;;5106639;28;20067;-76
2022/05/30 01:31:14;;;;;;;5.47;1.95;;;8.20;95.00;;;;;;5109226;28;20432;-75
2022/05/30 01:33:40;;;;;;;8.02;2.13;;;8.20;95.10;;;;;;5108971;27;20471;-75
2022/05/30 01:36:06;;;;;;;9.93;2.88;;;8.20;95.20;;;;;;5112851;28;20055;-76
2022/05/30 01:38:32;;;;;;;11.75;2.85;;;8.10;95.20;;;;;;5111397;28;20258;-75
2022/05/30 01:40:59;;;;;;;10.85;2.83;;;8.10;95.30;;;;;;5106164;28;20481;-76
2022/05/30 01:43:25;;;;;;;15.73;2.70;;;8.20;95.50;;;;;;5106602;28;20101;-76
2022/05/30 01:45:50;;;;;;;12.68;3.00;;;8.10;95.50;;;;;;5109387;28;20028;-76
2022/05/30 01:48:16;;;;;;;14.80;3.25;;;8.10;95.60;;;;;;5110018;28;20541;-75
2022/05/30 01:50:44;;;;;;;9.95;2.85;;;8.10;95.80;;;;;;5107912;28;20039;-76
2022/05/30 01:53:09;;;;;;;8.48;2.80;;;8.10;95.90;;;;;;5109554;28;20370;-76
2022/05/30 01:55:35;;;;;;;10.38;3.25;;;8.00;96.00;;;;;;5109726;28;20032;-75
2022/05/30 01:58:00;;;;;;;14.40;3.25;;;8.00;96.20;;;;;;5107156;28;20047;-76
2022/05/30 02:00:26;;;;;;;8.90;2.55;;;8.00;96.30;;;;;;5107368;28;20383;-75
2022/05/30 02:02:51;;;;;;;12.10;3.08;;;8.00;96.40;;;;;;5101118;28;20042;-75
2022/05/30 02:05:17;;;;;;;16.75;3.13;;;8.00;96.50;;;;;;5107295;28;20093;-75
2022/05/30 02:07:42;;;;;;;8.43;3.03;;;7.90;96.60;;;;;;5111005;28;20038;-76
2022/05/30 02:10:08;;;;;;;7.95;3.00;;;8.00;96.70;;;;;;5108724;28;20030;-75
2022/05/30 02:12:34;;;;;;;9.02;2.40;;;7.90;96.70;;;;;;5111322;28;20058;-75
2022/05/30 02:14:59;;;;;;;9.63;2.50;;;7.90;96.80;;;;;;5109940;28;20032;-75
2022/05/30 02:17:25;;;;;;;7.80;2.53;;;7.90;96.80;;;;;;5112127;28;20040;-75
2022/05/30 02:19:51;;;;;;;13.02;4.05;;;7.90;97.10;;;;;;5107320;28;20032;-75
2022/05/30 02:22:22;;;;;;;7.70;2.60;;;7.90;96.90;;;;;;5107945;28;20114;-75
2022/05/30 02:24:48;;;;;;;;;;;7.90;97.10;;;;;;5107833;28;20211;-75
2022/05/30 02:27:15;;;;;;;7.18;2.47;;;8.00;97.10;;;;;;5109390;27;19916;-75
2022/05/30 02:29:41;;;;;;;9.38;3.00;;;8.00;97.20;;;;;;5109352;28;20042;-75
2022/05/30 02:32:07;;;;;;;12.90;2.85;;;8.00;97.10;;;;;;5111275;28;20110;-76
2022/05/30 02:37:17;;;;;;;8.52;3.10;;;8.00;97.20;;;;;;5108832;28;20443;-76
2022/05/30 02:39:42;;;;;;;15.35;3.15;;;8.00;97.30;;;;;;5109252;28;20041;-76
2022/05/30 02:42:09;;;;;;;6.30;2.72;;;8.00;97.20;;;;;;5107210;28;20051;-75
2022/05/30 02:44:35;;;;;;;8.52;3.03;;;8.00;97.40;;;;;;5106714;28;20126;-75
2022/05/30 02:47:00;;;;;;;16.42;3.78;;;7.90;97.30;;;;;;5109874;28;20126;-75
2022/05/30 02:49:28;;;;;;;13.05;3.50;;;8.00;97.50;;;;;;5104788;28;20091;-76
2022/05/30 02:51:54;;;;;;;9.23;3.55;;;7.90;97.50;;;;;;5103375;28;20031;-75
2022/05/30 02:54:21;;;;;;;7.75;3.20;;;7.90;97.50;;;;;;5109269;28;20473;-75
2022/05/30 02:56:51;;;;;;;9.40;3.58;;;7.90;97.50;;;;;;5108973;28;20118;-75
2022/05/30 02:59:17;;;;;;;12.77;3.73;;;7.90;97.50;;;;;;5106266;28;20035;-75
2022/05/30 03:01:42;;;;;;;10.30;3.50;;;7.90;97.60;;;;;;5101596;28;20028;-77
2022/05/30 03:04:08;;;;;;;10.52;3.38;;;7.90;97.60;;;;;;5108796;28;20042;-75
2022/05/30 03:06:35;;;;;;;11.63;3.25;;;7.90;97.60;;;;;;5110600;28;20031;-76
2022/05/30 03:09:01;;;;;;;12.00;3.22;;;7.90;97.60;;;;;;5107435;28;20079;-76
2022/05/30 03:11:26;;;;;;;13.45;3.67;;;7.90;97.70;;;;;;5107765;28;20412;-75
2022/05/30 03:13:52;;;;;;;6.95;3.25;;;7.90;97.70;;;;;;5109527;28;20035;-76
2022/05/30 03:16:17;;;;;;;13.52;3.55;;;7.90;97.70;;;;;;5108818;28;20474;-76
2022/05/30 03:18:43;;;;;;;9.57;3.38;;;7.90;97.80;;;;;;5107667;28;20035;-75
2022/05/30 03:21:10;;;;;;;10.13;3.88;;;8.00;97.90;;;;;;5103685;28;20036;-75
2022/05/30 03:23:35;;;;;;;12.93;3.78;;;7.90;97.80;;;;;;5110176;28;20035;-75
2022/05/30 03:26:01;;;;;;;11.25;3.65;;;8.00;97.90;;;;;;5108459;28;20036;-76
2022/05/30 03:28:26;;;;;;;12.93;3.50;;;7.90;97.80;;;;;;5105366;28;20088;-75
2022/05/30 03:30:52;;;;;;;11.77;3.50;;;7.90;97.90;;;;;;5101583;28;20193;-76
2022/05/30 03:33:18;;;;;;;13.07;4.03;;;7.90;97.80;;;;;;5111124;28;20039;-76
2022/05/30 03:35:43;;;;;;;12.05;3.97;;;7.90;97.90;;;;;;5103341;28;20093;-76
2022/05/30 03:38:09;;;;;;;11.48;3.70;;;7.90;97.90;;;;;;5107021;28;20039;-76
2022/05/30 03:40:38;;;;;;;11.18;3.28;;;8.00;98.00;;;;;;5108985;28;20036;-75
2022/05/30 03:43:09;;;;;;;10.10;4.03;;;8.00;98.00;;;;;;5107433;28;20060;-75
2022/05/30 03:45:39;;;;;;;8.55;3.97;;;8.00;98.00;;;;;;5109608;28;20466;-75
2022/05/30 03:48:06;;;;;;;8.52;3.22;;;8.00;98.00;;;;;;5104780;28;20493;-76
2022/05/30 03:50:32;;;;;;;14.18;4.32;;;8.00;97.90;;;;;;5103022;28;20557;-75
2022/05/30 03:53:05;;;;;;;13.75;3.70;;;7.90;97.90;;;;;;5103422;28;20036;-75
2022/05/30 03:55:32;;;;;;;9.45;3.20;;;8.00;98.10;;;;;;5109491;28;20016;-76
2022/05/30 03:57:58;;;;;;;8.30;3.05;;;8.00;98.00;;;;;;5101564;28;20055;-75
2022/05/30 04:00:24;;;;;;;12.48;3.92;;;8.00;97.90;;;;;;5107071;28;20110;-75
2022/05/30 04:02:49;;;;;;;10.35;3.50;;;8.00;97.90;;;;;;5104055;28;20020;-75
2022/05/30 04:05:19;;;;;;;10.60;3.53;;;8.00;98.00;;;;;;5108690;28;20189;-76
2022/05/30 04:07:45;;;;;;;9.07;3.20;;;8.00;98.00;;;;;;5098434;28;20478;-75
2022/05/30 04:10:11;;;;;;;12.20;3.17;;;8.00;97.90;;;;;;5104218;28;20042;-75
2022/05/30 04:12:38;;;;;;;8.10;3.63;;;8.00;97.90;;;;;;5111425;28;20020;-75
2022/05/30 04:15:05;;;;;;;14.98;3.00;;;8.00;97.90;;;;;;5110767;28;20016;-75
2022/05/30 04:17:34;;;;;;;11.82;3.08;;;8.00;97.80;;;;;;5105218;28;20031;-75
2022/05/30 04:20:00;;;;;;;8.70;2.78;;;8.00;97.80;;;;;;5109786;28;20032;-71
2022/05/30 04:22:25;;;;;;;13.27;3.75;;;8.00;97.80;;;;;;5109012;28;20039;-72
2022/05/30 04:24:52;;;;;;;11.02;2.90;;;8.10;97.70;;;;;;5099007;28;20118;-72
2022/05/30 04:27:17;;;;;;;11.48;3.53;;;8.10;97.70;;;;;;5107109;28;20035;-73
2022/05/30 04:29:43;;;;;;;10.23;2.75;;;8.00;97.50;;;;;;5110625;28;20028;-74
2022/05/30 04:32:09;;;;;;;8.23;2.88;;;8.10;97.60;;;;;;5109935;28;20027;-74
2022/05/30 04:34:36;;;;;;;10.73;2.72;;;8.00;97.30;;;;;;5103792;28;20032;-73
2022/05/30 04:37:03;;;;;;;10.30;2.83;;;8.10;97.30;;;;;;5108007;28;20077;-73
2022/05/30 04:39:28;;;;;;;6.63;2.53;;;8.10;97.30;;;;;;5110151;28;20027;-74
2022/05/30 04:41:54;;;;;;;11.75;2.78;;;8.10;97.20;;;;;;5110707;28;20398;-74
2022/05/30 04:44:19;;;;;;;11.65;2.83;;;8.20;97.20;;;;;;5107938;28;20491;-73
2022/05/30 04:46:51;;;;;;;8.43;2.67;;;8.30;97.20;;;;;;5113564;28;20559;-73
2022/05/30 04:49:17;;;;;;;11.07;2.67;;;8.30;97.10;;;;;;5110222;28;20035;-73
2022/05/30 04:51:42;;;;;;;10.88;3.10;;;8.40;97.10;;;;;;5112011;28;20028;-73
2022/05/30 04:54:08;;;;;;;8.25;2.60;;;8.50;96.90;;;;;;5113643;28;20030;-73
2022/05/30 04:56:33;;;;;;;8.68;2.40;;;8.40;96.70;;;;;;5114352;28;20035;-73
2022/05/30 04:58:59;;;;;;;8.50;2.60;;;8.50;96.60;;;;;;5104354;28;20040;-74
2022/05/30 05:01:27;;;;;;;15.10;2.45;;;8.50;96.40;;;;;;5105000;28;20035;-74
2022/05/30 05:03:52;;;;;;;8.48;2.28;;;8.50;96.00;;;;;;5113206;28;20070;-74
2022/05/30 05:06:20;;;;;;;9.13;2.38;;;8.50;95.90;;;;;;5112746;28;20060;-73
2022/05/30 05:09:03;;;;;;;8.27;2.10;;;8.50;95.70;;;;;;5105780;28;20035;-73
2022/05/30 05:11:31;;;;;;;7.78;1.92;;;8.60;95.60;;;;;;5109302;28;20097;-73
2022/05/30 05:13:57;;;;;;;7.68;2.15;;;8.60;95.60;;;;;;5109411;28;20378;-73
2022/05/30 05:16:26;;;;;;;9.65;2.53;;;8.60;95.40;;;;;;5105719;28;20032;-74
2022/05/30 05:18:53;;;;;;;7.80;2.20;;;8.60;95.20;;;;;;5104483;28;20049;-74
2022/05/30 05:21:31;;;;;;;6.38;2.05;;;8.70;95.30;;;;;;5106166;28;20301;-73
2022/05/30 05:23:58;;;;;;;7.55;1.67;;;8.70;95.20;;;;;;5097651;28;20043;-73
2022/05/30 05:26:23;;;;;;;5.60;1.73;;;8.70;95.10;;;;;;5109714;28;20042;-73
2022/05/30 05:28:49;;;;;;;6.75;2.22;;;8.70;95.10;;;;;;5104447;28;20024;-73
2022/05/30 05:31:22;;;;;;;4.57;2.05;;;8.60;95.00;;;;;;5111352;27;20032;-73
2022/05/30 05:33:47;;;;;;;6.93;2.35;;;8.70;94.90;;;;;;5108249;27;20421;-73
2022/05/30 05:36:22;;;;;;;6.22;1.85;;;8.70;94.90;;;;;;5107962;28;20030;-73
2022/05/30 05:38:48;;;;;;;3.97;1.70;;;8.90;95.00;;;;;;5105427;27;20077;-73
2022/05/30 05:41:14;;;;;;;5.60;1.75;;;8.90;94.80;;;;;;5107179;28;20119;-73
2022/05/30 05:43:39;;;;;;;7.57;2.00;;;9.00;94.70;;;;;;5107596;28;20138;-74
2022/05/30 05:46:11;;;;;;;3.90;1.95;;;9.10;94.70;;;;;;5104437;28;20035;-73
2022/05/30 05:48:36;;;;;;;5.88;1.92;;;9.20;94.60;;;;;;5108196;27;20035;-73
2022/05/30 05:51:04;;;;;;;8.20;1.80;;;9.30;94.20;;;;;;5103898;28;20027;-74
2022/05/30 05:53:29;;;;;;;6.57;1.60;;;9.20;93.50;;;;;;5103262;27;20036;-73
2022/05/30 05:55:55;;;;;;;4.60;1.80;;;9.30;93.40;;;;;;5104059;28;20077;-74
2022/05/30 05:58:20;;;;;;;7.10;2.00;;;9.30;93.20;;;;;;5111012;28;20039;-74
2022/05/30 06:00:46;;;;;;;4.32;1.50;;;9.50;93.40;;;;;;5107909;28;20114;-74
2022/05/30 06:03:11;;;;;;;5.25;1.70;;;9.60;93.10;;;;;;5112255;28;20386;-74
2022/05/30 06:05:39;;;;;;;10.52;1.88;;;9.60;92.70;;;;;;5107220;28;20032;-74
2022/05/30 06:08:05;;;;;;;8.82;1.88;;;9.60;92.60;;;;;;5107225;28;20035;-74
2022/05/30 06:10:33;;;;;;;5.75;1.77;;;9.60;92.80;;;;;;5101923;28;20024;-73
2022/05/30 06:12:58;;;;;;;7.25;1.65;;;9.60;92.70;;;;;;5111099;28;20039;-73
2022/05/30 06:15:24;;;;;;;5.93;1.88;;;9.40;92.50;;;;;;5109688;28;20031;-73
2022/05/30 06:17:50;;;;;;;7.18;1.60;;;9.50;92.80;;;;;;5110301;28;20694;-73
2022/05/30 06:20:17;;;;;;;5.63;1.80;;;9.40;92.40;;;;;;5111440;28;20034;-73
2022/05/30 06:22:42;;;;;;;3.83;1.92;;;9.20;92.40;;;;;;5111510;28;20421;-73
2022/05/30 06:25:08;;;;;;;5.95;1.73;;;9.40;92.70;;;;;;5108798;28;20028;-74
2022/05/30 06:27:34;;;;;;;5.60;1.73;;;9.30;92.70;;;;;;5107696;28;20024;-73
2022/05/30 06:30:01;;;;;;;3.65;1.67;;;9.30;92.80;;;;;;5109917;28;20032;-73
2022/05/30 06:32:27;;;;;;;5.50;1.60;;;9.40;92.70;;;;;;5110722;28;20035;-73
2022/05/30 06:34:52;;;;;;;5.78;1.50;;;9.40;92.70;;;;;;5105844;28;20032;-73
2022/05/30 06:37:18;;;;;;;6.47;1.52;;;9.40;92.30;;;;;;5091111;28;20478;-73
2022/05/30 06:39:44;;;;;;;4.70;1.48;;;9.40;92.50;;;;;;5092155;28;20046;-72
2022/05/30 06:42:11;;;;;;;8.07;1.63;;;9.50;92.60;;;;;;5111199;28;20047;-74
2022/05/30 06:44:37;;;;;;;5.28;1.50;;;9.60;92.70;;;;;;5105807;28;20532;-74
2022/05/30 06:47:04;;;;;;;6.85;1.67;;;9.60;92.70;;;;;;5093721;28;20123;-73
2022/05/30 06:49:30;;;;;;;3.97;1.48;;;9.60;92.50;;;;;;5098581;28;20046;-73
2022/05/30 06:51:55;;;;;;;5.18;1.40;;;9.60;92.10;;;;;;5101021;28;20031;-75
2022/05/30 06:54:21;;;;;;;5.65;1.38;;;9.60;91.90;;;;;;5105603;28;20028;-73
2022/05/30 06:59:31;;;;;;;5.72;1.60;;;9.70;91.90;;;;;;5107887;28;20031;-74
2022/05/30 07:01:59;;;;;;;3.58;1.20;;;9.80;92.00;;;;;;5105480;28;20019;-74
2022/05/30 07:04:25;;;;;;;5.95;1.73;;;9.80;91.40;;;;;;5111442;28;20027;-74
2022/05/30 07:06:51;;;;;;;5.07;1.40;;;10.00;91.50;;;;;;5107674;28;20540;-74
2022/05/30 07:09:17;;;;;;;5.00;1.88;;;10.00;91.20;;;;;;5102890;28;20028;-74
2022/05/30 07:11:43;;;;;;;3.60;1.75;;;10.10;91.20;;;;;;5104719;28;20019;-74
2022/05/30 07:14:12;;;;;;;4.03;1.63;;;10.10;91.20;;;;;;5104853;28;20040;-74
2022/05/30 07:16:39;;;;;;;5.28;1.67;;;10.00;91.50;;;;;;5100679;28;20050;-75
2022/05/30 07:19:05;;;;;;;5.38;1.58;;;10.00;90.60;;;;;;5100730;28;20020;-73
2022/05/30 07:21:30;;;;;;;3.42;1.33;;;10.00;90.50;;;;;;5109235;28;20023;-74
2022/05/30 07:23:56;;;;;;;6.03;2.20;;;10.10;90.20;;;;;;5103357;28;20034;-73
2022/05/30 07:26:22;;;;;;;5.00;1.70;;;10.30;90.80;;;;;;5103630;28;20062;-73
2022/05/30 07:28:48;;;;;;;4.97;1.98;;;10.30;90.30;;;;;;5102686;28;20042;-73
2022/05/30 07:31:19;;;;;;;4.30;1.35;;;10.50;90.90;;;;;;5106057;28;20028;-75
2022/05/30 07:33:47;;;;;;;8.23;1.73;;;10.60;89.90;;;;;;5102670;28;20051;-75
2022/05/30 07:36:22;;;;;;;2.00;1.38;;;10.70;89.40;;;;;;5106330;28;20522;-74
2022/05/30 07:38:48;;;;;;;5.30;1.30;;;10.60;88.30;;;;;;5108617;28;20463;-73
2022/05/30 07:41:14;;;;;;;4.53;1.30;;;10.90;88.80;;;;;;5107375;28;20028;-74
2022/05/30 07:43:40;;;;;;;4.50;1.48;;;10.60;87.00;;;;;;5104793;28;20099;-74
2022/05/30 07:46:09;;;;;;;5.28;1.80;;;10.60;88.00;;;;;;5106252;28;20422;-74
2022/05/30 07:48:36;;;;;;;2.30;1.25;;;10.60;87.50;;;;;;5094618;28;20425;-75
2022/05/30 07:51:04;;;;;;;9.18;1.50;;;10.80;88.10;;;;;;5101322;28;20482;-74
2022/05/30 07:53:29;;;;;;;2.47;1.08;;;11.00;88.50;;;;;;5105940;28;20035;-74
2022/05/30 07:55:55;;;;;;;5.10;1.40;;;10.80;87.60;;;;;;5103018;28;20375;-74
2022/05/30 07:58:21;;;;;;;5.93;1.50;;;11.10;88.00;;;;;;5101408;28;20035;-74
2022/05/30 08:00:49;;;;;;;4.57;1.48;;;11.30;88.20;;;;;;5109597;28;20078;-75
2022/05/30 08:03:16;;;;;;;6.35;1.42;;;11.20;86.50;;;;;;5120519;28;20027;-74
2022/05/30 08:05:43;;;;;;;4.72;1.70;;;11.20;85.10;;;;;;5109918;28;20023;-74
2022/05/30 08:08:09;;;;;;;4.70;1.30;;;11.00;85.70;;;;;;5098269;28;20032;-74
2022/05/30 08:10:35;;;;;;;7.07;1.73;;;11.40;85.60;;;;;;5109283;28;20107;-74
2022/05/30 08:13:01;;;;;;;4.68;1.50;;;11.80;87.50;;;;;;5105677;28;20114;-74
2022/05/30 08:15:26;;;;;;;8.57;1.55;;;11.70;85.30;;;;;;5110046;28;20467;-74
2022/05/30 08:17:55;;;;;;;2.05;1.10;;;11.70;85.10;;;;;;5106416;28;20043;-74
2022/05/30 08:20:22;;;;;;;4.03;1.30;;;11.80;85.50;;;;;;5108976;28;20447;-75
2022/05/30 08:22:47;;;;;;;7.38;1.17;;;11.50;83.50;;;;;;5108939;28;20114;-74
2022/05/30 08:25:15;;;;;;;3.63;1.20;;;11.30;84.20;;;;;;5105751;28;20115;-74
2022/05/30 08:27:46;;;;;;;4.78;1.30;;;11.50;84.40;;;;;;5111518;27;20395;-75
2022/05/30 08:30:15;;;;;;;6.30;1.15;;;11.50;84.80;;;;;;5111898;28;20043;-73
2022/05/30 08:32:42;;;;;;;4.10;1.13;;;11.60;84.60;;;;;;5116406;27;20081;-74
2022/05/30 08:35:10;;;;;;;5.40;1.42;;;11.60;84.50;;;;;;5113498;27;20027;-74
2022/05/30 08:37:37;;;;;;;4.32;1.00;;;11.70;83.70;;;;;;5108752;27;20063;-75
2022/05/30 08:42:59;;;;;;;3.10;1.00;;;11.80;82.40;;;;;;5107207;28;20058;-74
2022/05/30 08:45:25;;;;;;;2.42;0.90;;;12.00;83.70;;;;;;5110165;28;20028;-74
2022/05/30 08:47:54;;;;;;;6.85;1.10;;;12.20;84.80;;;;;;5112115;27;20031;-74
2022/05/30 08:50:47;;;;;;;3.80;0.98;;;11.90;83.40;;;;;;5101922;27;20054;-75
2022/05/30 08:53:38;;;;;;;3.67;0.90;;;12.10;82.00;;;;;;5104075;27;20103;-75
2022/05/30 08:56:28;;;;;;;3.47;1.00;;;12.00;79.00;;;;;;5108703;27;20086;-74
2022/05/30 08:59:08;;;;;;;3.88;0.90;;;12.20;82.20;;;;;;5103832;28;20031;-73
2022/05/30 09:01:39;;;;;;;6.97;1.27;;;12.30;82.90;;;;;;5104018;27;20023;-74
2022/05/30 09:04:16;;;;;;;2.00;0.98;;;12.10;82.20;;;;;;5103942;27;20065;-75
2022/05/30 09:06:47;;;;;;;4.43;0.85;;;12.00;80.70;;;;;;5109949;28;20035;-73
2022/05/30 09:09:17;;;;;;;3.72;1.00;;;11.80;79.80;;;;;;5108463;28;20056;-74
2022/05/30 09:12:06;;;;;;;4.63;1.00;;;11.90;79.80;;;;;;5107811;27;20032;-73
2022/05/30 09:14:37;;;;;;;4.03;1.02;;;11.90;80.20;;;;;;5105366;27;20036;-73
2022/05/30 09:17:06;;;;;;;2.30;0.93;;;11.80;79.10;;;;;;5110153;28;20031;-73
2022/05/30 09:19:31;;;;;;;5.32;1.17;;;11.70;78.90;;;;;;5101861;27;20031;-74
2022/05/30 09:22:01;;;;;;;4.05;0.73;;;11.80;80.40;;;;;;5103947;27;20038;-75
2022/05/30 09:24:29;;;;;;;5.60;1.17;;;11.80;78.50;;;;;;5101809;27;20038;-76
2022/05/30 09:26:57;;;;;;;2.88;0.75;;;11.90;79.70;;;;;;5102098;27;20027;-76
2022/05/30 09:29:24;;;;;;;4.15;1.10;;;11.80;78.60;;;;;;5107934;28;20042;-75
2022/05/30 09:31:54;;;;;;;5.97;1.13;;;11.70;80.20;;;;;;5100489;28;20040;-76
2022/05/30 09:34:40;;;;;;;3.42;0.82;;;11.70;80.10;;;;;;5114804;27;20032;-75
2022/05/30 09:37:06;;;;;;;3.50;0.70;;;11.60;79.90;;;;;;5106092;28;20051;-77
2022/05/30 09:39:58;;;;;;;4.65;1.00;;;11.50;79.90;;;;;;5107887;28;20032;-77
2022/05/30 09:42:24;;;;;;;3.95;0.68;;;11.40;79.60;;;;;;5108983;27;20055;-76
2022/05/30 09:44:55;;;;;;;2.67;0.80;;;11.40;80.30;;;;;;5111936;27;20078;-78
2022/05/30 09:47:22;;;;;;;3.28;0.70;;;11.20;80.40;;;;;;5117612;27;20028;-79
2022/05/30 09:49:50;;;;;;;4.88;1.10;;;11.20;81.10;;;;;;5100818;28;20020;-76
2022/05/30 09:52:29;;;;;;;2.03;0.88;;;11.10;81.60;;;;;;5104952;28;20130;-79
2022/05/30 09:54:55;;;;;;;2.20;0.85;;;11.00;82.10;;;;;;5107440;27;20020;-80
2022/05/30 09:57:31;;;;;;;3.10;0.80;;;10.90;82.10;;;;;;5112221;27;20039;-79
2022/05/30 10:00:08;;;;;;;5.07;1.00;;;10.80;82.70;;;;;;5112105;28;20035;-76
2022/05/30 10:02:37;;;;;;;3.13;0.73;;;10.80;83.50;;;;;;5108358;27;20433;-79
2022/05/30 10:05:04;;;;;;;4.47;1.17;;;10.70;83.50;;;;;;5107823;27;20031;-76
2022/05/30 10:07:32;;;;;;;1.85;1.00;;;10.90;84.70;;;;;;5099187;28;20044;-76
2022/05/30 10:10:22;;;;;;;3.75;0.95;;;10.80;84.20;;;;;;5108638;28;20036;-78
2022/05/30 10:12:58;;;;;;;2.70;0.90;;;10.90;85.20;;;;;;5103777;27;20036;-78
2022/05/30 10:15:49;;;;;;;0.90;0.70;;;10.80;84.90;;;;;;5112229;27;20023;-76
2022/05/30 10:18:17;;;;;;;3.53;0.77;;;10.90;84.00;;;;;;5112640;27;20081;-77
2022/05/30 10:20:52;;;;;;;1.83;0.95;;;11.00;84.00;;;;;;5112194;28;20031;-77
2022/05/30 10:29:19;;;;;;;2.25;1.20;;;11.30;83.20;;;;;;5114315;27;20054;-75
2022/05/30 10:32:07;;;;;;;5.20;1.08;;;11.50;83.20;;;;;;5108225;27;20577;-75
2022/05/30 10:35:02;;;;;;;3.58;0.80;;;11.50;82.50;;;;;;5116365;27;20164;-78
2022/05/30 10:38:03;;;;;;;3.80;1.13;;;11.70;81.90;;;;;;5103187;28;20043;-78
2022/05/30 10:40:58;;;;;;;3.53;1.00;;;11.80;81.40;;;;;;5100487;28;20034;-77
2022/05/30 10:43:52;;;;;;;1.88;0.68;;;12.10;80.80;;;;;;5097443;28;20055;-77
2022/05/30 10:46:31;;;;;;;1.65;0.80;;;12.40;79.90;;;;;;5099513;27;20081;-78
2022/05/30 10:49:06;;;;;;;2.60;0.73;;;12.50;76.50;;;;;;5107858;28;20035;-77
2022/05/30 10:51:39;;;;;;;1.10;0.45;;;12.70;75.30;;;;;;5107821;27;20085;-77
2022/05/30 10:54:31;;;;;;;0.93;0.50;;;13.10;74.70;;;;;;5112141;28;20028;-77
2022/05/30 10:57:06;;;;;;;0.82;0.50;;;13.50;71.80;;;;;;5088697;27;20048;-77
2022/05/30 10:59:45;;;;;;;1.88;0.50;;;13.60;71.40;;;;;;5109772;28;20032;-77
2022/05/30 11:02:25;;;;;;;2.90;0.60;;;13.70;72.40;;;;;;5110523;28;20063;-78
2022/05/30 11:05:01;;;;;;;3.40;0.87;;;13.70;72.90;;;;;;5114899;28;20069;-78
2022/05/30 11:07:33;;;;;;;2.10;0.63;;;13.60;72.40;;;;;;5116386;27;20301;-78
2022/05/30 11:10:23;;;;;;;2.13;0.65;;;13.30;71.20;;;;;;5098649;28;20024;-78
2022/05/30 11:13:28;;;;;;;3.17;1.17;;;12.90;72.20;;;;;;5118541;27;20032;-78
2022/05/30 11:16:04;;;;;;;2.90;0.77;;;12.70;73.30;;;;;;5098307;28;20080;-78
2022/05/30 11:18:57;;;;;;;2.47;0.73;;;12.50;74.60;;;;;;5111560;28;20535;-78
2022/05/30 11:21:35;;;;;;;4.18;0.85;;;12.30;74.90;;;;;;5111354;28;20039;-77
2022/05/30 11:24:03;;;;;;;3.47;1.00;;;12.30;76.20;;;;;;5108705;28;20059;-78
2022/05/30 11:26:57;;;;;;;3.45;0.90;;;12.10;76.10;;;;;;5110090;28;20023;-78
2022/05/30 11:29:38;;;;;;;3.78;0.82;;;12.10;76.90;;;;;;5100495;28;20119;-79
2022/05/30 11:32:24;;;;;;;3.72;0.77;;;12.20;78.00;;;;;;5107103;27;20107;-78
2022/05/30 11:35:07;;;;;;;2.08;0.70;;;12.10;76.40;;;;;;5109493;28;20089;-79
2022/05/30 11:37:57;;;;;;;2.75;0.88;;;12.40;79.30;;;;;;5111851;28;20047;-78
2022/05/30 11:40:49;;;;;;;2.63;0.90;;;12.40;79.40;;;;;;5110755;28;20409;-78
2022/05/30 11:43:32;;;;;;;0.93;0.52;;;12.60;79.50;;;;;;5112425;28;20044;-79
2022/05/30 11:46:20;;;;;;;1.08;0.60;;;12.60;77.30;;;;;;5111812;28;20039;-79
2022/05/30 11:49:10;;;;;;;1.70;0.90;;;12.70;76.30;;;;;;5100730;28;20032;-78
2022/05/30 11:51:39;;;;;;;4.45;1.05;;;12.80;74.80;;;;;;5112661;28;20028;-78
2022/05/30 11:54:24;;;;;;;4.38;0.88;;;12.90;74.60;;;;;;5106433;28;20772;-77
2022/05/30 11:57:02;;;;;;;3.15;0.90;;;12.90;74.60;;;;;;5114379;28;20032;-78
2022/05/30 11:59:52;;;;;;;2.30;0.77;;;13.10;76.20;;;;;;5117729;28;20024;-78
2022/05/30 12:02:35;;;;;;;1.98;0.70;;;12.90;72.40;;;;;;5118105;27;20083;-77
2022/05/30 12:05:38;;;;;;;3.70;0.90;;;13.00;74.50;;;;;;5121931;27;20429;-79
2022/05/30 12:08:19;;;;;;;1.30;0.70;;;13.10;77.00;;;;;;5112900;28;20039;-78
2022/05/30 12:11:04;;;;;;;2.53;0.70;;;13.20;77.60;;;;;;5115577;28;20035;-78
2022/05/30 12:13:33;;;;;;;3.03;0.70;;;13.10;76.50;;;;;;5104276;28;20035;-78
2022/05/30 12:16:16;;;;;;;3.35;0.80;;;13.00;75.50;;;;;;5112578;27;20027;-78
2022/05/30 12:24:39;;;;;;;1.77;0.63;;;12.70;76.70;;;;;;5114521;28;20034;-77
2022/05/30 12:27:09;;;;;;;2.03;0.93;;;12.60;78.90;;;;;;5113151;27;20058;-77
2022/05/30 12:29:37;;;;;;;3.47;0.60;;;12.50;79.30;;;;;;5096590;28;20136;-77
2022/05/30 12:32:09;;;;;;;1.67;0.73;;;12.50;80.20;;;;;;5123561;27;20023;-79
2022/05/30 12:37:44;;;;;;;28.30;5.55;;;12.20;79.40;;;;;;5115362;27;20042;-79
2022/05/30 12:40:19;;;;;;;37.30;8.38;;;12.30;81.00;;;;;;5115176;28;20027;-76
2022/05/30 12:42:45;;;;;;;8.50;1.90;;;12.40;80.70;;;;;;5114731;27;20051;-77
2022/05/30 12:45:40;;;;;;;9.85;2.78;;;12.40;79.60;;;;;;5106438;28;20030;-78
2022/05/30 12:48:11;;;;;;;12.02;3.45;;;12.50;79.50;;;;;;5092404;27;20043;-78
2022/05/30 12:50:43;;;;;;;43.15;10.05;;;12.60;78.80;;;;;;5114678;28;20034;-78
2022/05/30 12:53:10;;;;;;;8.50;1.60;;;12.60;76.80;;;;;;5110711;28;20035;-78
2022/05/30 12:55:52;;;;;;;4.78;1.05;;;12.60;75.60;;;;;;5114008;28;20032;-77
2022/05/30 12:58:42;;;;;;;5.18;1.67;;;12.70;76.60;;;;;;5114241;27;20020;-77
2022/05/30 13:01:21;;;;;;;12.80;3.10;;;13.10;78.60;;;;;;5105179;28;20036;-78
2022/05/30 13:04:02;;;;;;;5.32;1.27;;;13.30;78.10;;;;;;5114227;28;20042;-78
2022/05/30 13:06:30;;;;;;;4.85;1.27;;;13.10;74.10;;;;;;5105099;28;20023;-78
2022/05/30 13:08:59;;;;;;;4.53;0.70;;;13.10;74.70;;;;;;5114250;28;20035;-78
2022/05/30 13:11:31;;;;;;;3.55;1.20;;;13.00;74.70;;;;;;5115756;27;20027;-78
2022/05/30 13:14:07;;;;;;;1.35;0.90;;;13.10;76.50;;;;;;5112400;27;20036;-78
2022/05/30 13:16:42;;;;;;;4.07;0.80;;;13.20;77.10;;;;;;5111159;28;20111;-78
2022/05/30 13:19:13;;;;;;;3.53;1.10;;;13.40;78.00;;;;;;5113687;28;20038;-78
2022/05/30 13:21:42;;;;;;;4.07;0.90;;;13.50;78.90;;;;;;5112556;27;20027;-78
2022/05/30 13:24:31;;;;;;;4.10;1.20;;;13.40;77.50;;;;;;5103424;28;20529;-75
2022/05/30 13:26:59;;;;;;;3.30;0.93;;;13.00;73.70;;;;;;5120059;27;20450;-77
2022/05/30 13:29:38;;;;;;;4.95;1.25;;;13.10;76.00;;;;;;5113343;27;20060;-77
2022/05/30 13:32:13;;;;;;;1.52;0.98;;;13.00;76.40;;;;;;5108626;27;20028;-78
2022/05/30 13:34:51;;;;;;;2.55;1.10;;;13.00;75.30;;;;;;5113654;27;20027;-78